x

La Have Bank (44150) Wave Buoy

4:00am - Thu 23rd Oct 2014 All times are ADT. -3 hours from GMT.

  • Sig Wave height 14.8ft
  • Peak Period 9s
  • Wind
    29mph, 34mph gusts
  • Sea Temp 70°f
  • Air Temp 69°f
  • Sea Pressure 1010.3mb
  • La Have Bank
  • La Have Bank

More Historic Weather Station data

Upgrade to MSW Pro to gain access to the past 30 days of data for over 8000 Wavebouys and Weather Stations around the globe.

Join Pro

Comparision Forecast

View Surf forecast
   
Thu 10/23 4:00am 15ft 9s 29 34 mph 1010.3mb 70f 69f
2:00am 12ft 10s 27 34 mph 1011.2mb 70f 69f
1:00am 12.5ft 9s 27 31 mph 1011.8mb 70f 69f
12:00am 11ft 9s 25 29 mph 1012.2mb 70f 69f
Wed 10/22 11:00pm 10.5ft 9s 27 31 mph 1013mb 70f 69f
10:00pm 10.5ft 8s 25 31 mph 1012.6mb 70f 69f
9:00pm 11ft 8s 20 27 mph 1013mb 70f 69f
8:00pm  -   -  20
mph
- - -
7:00pm 11ft 9s 22 25 mph 1013.8mb 70f 69f
6:00pm 10.5ft 9s 22 27 mph 1013.8mb 70f 70f
5:00pm 12ft 8s 20 25 mph 1013.7mb 70f 70f
4:00pm 12ft 8s 20 25 mph 1013.9mb 70f 70f
3:00pm 12ft 9s 20 22 mph 1014.3mb 69f 68f
2:00pm 11ft 8s 22 27 mph 1014.6mb 69f 68f
1:00pm 11.5ft 10s 25 29 mph 1014.9mb 69f 69f
12:00pm 13ft 9s 25 29 mph 1015.6mb 69f 68f
11:00am 12.5ft 10s 22 29 mph 1015.5mb 70f 68f
10:00am 12ft 7s 29 38 mph 1015.6mb 70f 69f
9:00am  -   -  31
mph
1015.5mb - 69f
8:00am 10.5ft 7s 34 43 mph 1014.9mb 70f 68f
7:00am 10ft 6s 31 40 mph 1015.1mb 70f 66f
6:00am 9ft 6s 27 34 mph 1015.4mb 70f 64f
5:00am  -   -  29
mph
1015.7mb - 64f
4:00am 8ft 6s 27 31 mph 1016.5mb 69f 67f
3:00am  -   -  27
mph
1017.1mb - 68f
2:00am 6ft 5s 22 29 mph 1017.9mb 69f 67f
1:00am 5.5ft 5s 25 29 mph 1018.7mb 68f 67f
12:00am  -   -  22
mph
- - -
Tue 10/21 10:00pm 3.5ft 8s 18 22 mph 1019.7mb 67f 64f
9:00pm 3.5ft 9s 16 20 mph 1020.1mb 66f 64f
8:00pm 3.5ft 8s 11 13 mph 1020.6mb 67f 64f
7:00pm 3.5ft 8s 9 11 mph 1020.9mb 66f 64f
6:00pm 3.5ft 8s 2 4 mph 1020.9mb 66f 63f
5:00pm 4.5ft 8s 7 9 mph 1021.1mb 66f 64f
4:00pm 4.5ft 7s 7 11 mph 1020.9mb 66f 63f
3:00pm 4.5ft 7s 11 13 mph 1020.7mb 65f 63f
2:00pm 5ft 7s 11 16 mph 1020.7mb 65f 63f
1:00pm 5ft 6s 11 16 mph 1020.9mb 64f 62f
12:00pm 5ft 7s 9 13 mph 1021.1mb 64f 62f
11:00am 5.5ft 7s 9 13 mph 1021.2mb 64f 61f
10:00am 6ft 7s  -  4 mph 1021.3mb 64f 59f
9:00am 5.5ft 7s 4 9 mph 1021mb 64f 58f
8:00am 6ft 7s 13 18 mph 1020.2mb 64f 59f
7:00am 6ft 9s 16 20 mph 1019.8mb 64f 59f
6:00am 6ft 8s 16 20 mph 1019.6mb 64f 59f
5:00am 6.5ft 9s 16 20 mph 1019.2mb 64f 58f
4:00am 7ft 9s 18 22 mph 1018.9mb 64f 58f
3:00am 7ft 9s 16 20 mph 1018.8mb 64f 57f
2:00am 7ft 7s 18 22 mph 1018.6mb 65f 57f
1:00am 6.5ft 7s 18 22 mph 1018.2mb 65f 56f
12:00am 7.5ft 8s 18 27 mph 1017.7mb 64f 56f
Mon 10/20 11:00pm 7.5ft 8s 22 27 mph 1017.6mb 64f 56f
10:00pm 7.5ft 7s 20 25 mph 1017.1mb 63f 56f
9:00pm 7.5ft 8s 22 27 mph 1016.3mb 63f 56f
8:00pm 8ft 8s 22 27 mph 1016.1mb 62f 55f
7:00pm 8.5ft 8s 22 29 mph 1015.7mb 62f 56f
6:00pm 10ft 8s 22 29 mph 1015.2mb 62f 55f
5:00pm 9ft 8s 25 31 mph 1015mb 62f 54f
4:00pm 10ft 8s 25 31 mph 1014.7mb 62f 53f
3:00pm 10ft 8s 27 34 mph 1014.2mb 62f 53f
2:00pm 10ft 8s 27 34 mph 1014.1mb 62f 52f
12:00pm 10ft 8s 27 34 mph 1014mb 62f 52f
10:00am 11ft 8s 29 36 mph 1012.5mb 64f 51f
9:00am 12ft 9s 27 40 mph 1011.7mb 64f 51f
8:00am 12ft 9s 29 36 mph 1010.3mb 65f 52f
7:00am  -   -  34
mph
- - -
6:00am 13ft 8s 34 43 mph 1007.8mb 64f 52f
5:00am 11ft 8s 34 40 mph 1006.3mb 69f 53f
4:00am 9.5ft 7s 34 40 mph 1005.1mb 69f 54f
3:00am 9ft 7s 31 40 mph 1004.1mb 67f 54f
2:00am 8ft 12s 29
mph
1003.3mb 67f 55f
12:00am 6.5ft 11s 27 34 mph 1001.9mb 62f 57f
Sun 10/19 11:00pm 6ft 12s 27 31 mph 1001.3mb 61f 57f
10:00pm 6ft 11s 9 11 mph 1001.6mb 61f 58f
9:00pm 6ft 11s 13 16 mph 1000.1mb 61f 57f
8:00pm 6.5ft 11s 9 13 mph 1002.6mb 61f 57f
7:00pm 7ft 12s 13 16 mph 1003.3mb 61f 58f
6:00pm 7.5ft 11s 13 18 mph 1004mb 61f 60f
5:00pm 7.5ft 12s 9 13 mph 1004mb 61f 61f
4:00pm 8ft 12s 4 9 mph 1003.9mb 61f 62f
3:00pm 8.5ft 12s 9 11 mph 1004.3mb 61f 65f
2:00pm 9ft 12s 13 18 mph 1004.9mb 61f 65f
1:00pm 10ft 12s 13 18 mph 1005.1mb 61f 66f
12:00pm 10.5ft 13s 16 18 mph 1005.3mb 63f 66f
11:00am 10ft 14s 18 22 mph 1005.8mb 63f 66f
10:00am 10ft 12s 20 25 mph 1005.6mb 63f 66f
9:00am 11ft 12s 22 27 mph 1004.9mb 64f 65f